createdAt,value
2023-03-10T00:01:10.235Z,4.1
2023-03-10T00:06:54.021Z,5.2
2023-03-10T00:12:37.678Z,2.9
2023-03-10T00:18:21.475Z,3
2023-03-10T00:24:05.044Z,4.8
2023-03-10T00:29:48.626Z,2.7
2023-03-10T00:35:33.526Z,4.4
2023-03-10T00:41:28.352Z,3.7
2023-03-10T00:47:12.264Z,5.5
2023-03-10T00:52:56.037Z,3.8
2023-03-10T00:58:39.800Z,2.7
2023-03-10T01:04:24.666Z,4.6
2023-03-10T01:10:08.874Z,3
2023-03-10T01:15:53.101Z,4.3
2023-03-10T01:21:38.373Z,5.1
2023-03-10T01:27:22.102Z,5.3
2023-03-10T01:33:05.830Z,3.4
2023-03-10T01:38:50.135Z,2.9
2023-03-10T01:44:33.801Z,2.6
2023-03-10T01:50:18.828Z,3.9
2023-03-10T01:56:03.765Z,3.5
2023-03-10T02:01:48.265Z,3.9
2023-03-10T02:07:32.471Z,4.4
2023-03-10T02:13:16.384Z,4.6
2023-03-10T02:19:00.339Z,5.6
2023-03-10T02:24:48.053Z,5.4
2023-03-10T02:30:34.027Z,4.6
2023-03-10T02:36:21.756Z,4
2023-03-10T02:42:11.504Z,7.5
2023-03-10T02:47:55.274Z,5.4
2023-03-10T02:53:38.915Z,6.6
2023-03-10T02:59:22.788Z,8.8
2023-03-10T03:05:06.863Z,8.3
2023-03-10T03:10:51.932Z,4.8
2023-03-10T03:16:35.982Z,5
2023-03-10T03:22:19.934Z,4.5
2023-03-10T03:28:03.723Z,5.2
2023-03-10T03:33:48.046Z,5
2023-03-10T03:39:32.109Z,4.4
2023-03-10T03:45:17.265Z,4
2023-03-10T03:51:00.910Z,4
2023-03-10T03:56:44.763Z,3.8
2023-03-10T04:02:28.855Z,4.3
2023-03-10T04:08:12.691Z,4.3
2023-03-10T04:13:56.364Z,5.7
2023-03-10T04:19:40.004Z,3.7
2023-03-10T04:25:23.841Z,4.8
2023-03-10T04:31:12.921Z,2.5
2023-03-10T04:36:56.666Z,4.1
2023-03-10T04:42:41.138Z,2.8
2023-03-10T04:48:25.003Z,3.4
2023-03-10T04:54:08.692Z,3.8
2023-03-10T04:59:52.544Z,3.7
2023-03-10T05:05:39.447Z,6.7
2023-03-10T05:11:23.123Z,4.2
2023-03-10T05:17:07.350Z,5.6
2023-03-10T05:22:51.095Z,5.5
2023-03-10T05:28:35.026Z,4.1
2023-03-10T05:34:18.752Z,4
2023-03-10T05:40:02.180Z,5.3
2023-03-10T05:45:45.987Z,7.1
2023-03-10T05:51:30.456Z,3.8
2023-03-10T05:57:16.694Z,6.5
2023-03-10T06:03:01.025Z,5.3
2023-03-10T06:08:44.887Z,8.7
2023-03-10T06:14:28.696Z,6.4
2023-03-10T06:20:12.927Z,6
2023-03-10T06:26:05.098Z,7.2
2023-03-10T06:31:49.073Z,6.5
2023-03-10T06:37:33.614Z,4.7
2023-03-10T06:43:17.638Z,5
2023-03-10T06:49:01.331Z,6.9
2023-03-10T06:54:45.356Z,6.5
2023-03-10T07:00:29.095Z,6.4
2023-03-10T07:06:12.812Z,7.5
2023-03-10T07:11:56.481Z,7.3
2023-03-10T07:17:40.258Z,7
2023-03-10T07:23:24.366Z,6.1
2023-03-10T07:29:08.286Z,7.5
2023-03-10T07:34:53.385Z,8.5
2023-03-10T07:40:37.376Z,6.3
2023-03-10T07:46:21.758Z,7.9
2023-03-10T07:52:07.016Z,5.4
2023-03-10T07:57:50.794Z,8
2023-03-10T08:03:34.776Z,8.1
2023-03-10T08:09:18.648Z,5.1
2023-03-10T08:15:02.454Z,7
2023-03-10T08:20:46.094Z,6.3
2023-03-10T08:26:29.887Z,6.4
2023-03-10T08:32:13.929Z,5.7
2023-03-10T08:37:58.232Z,3.8
2023-03-10T08:43:42.207Z,6.1
2023-03-10T08:49:26.955Z,5.5
2023-03-10T08:55:11.462Z,4.9
2023-03-10T09:00:55.255Z,6.2
2023-03-10T09:06:39.227Z,2.9
2023-03-10T09:12:23.008Z,3.7
2023-03-10T09:18:06.814Z,4
2023-03-10T09:23:51.439Z,2.5
2023-03-10T09:35:29.418Z,3.2
2023-03-10T09:41:18.732Z,2.1
2023-03-10T09:47:09.008Z,2
2023-03-10T09:52:57.732Z,2
2023-03-10T09:58:44.159Z,2.7
2023-03-10T10:04:31.157Z,1.6
2023-03-10T10:10:18.290Z,2.3
2023-03-10T10:16:33.765Z,1.7
2023-03-10T10:22:17.430Z,1.5
2023-03-10T10:28:01.780Z,1.8
2023-03-10T10:34:02.309Z,1.2
2023-03-10T10:39:47.728Z,1.2
2023-03-10T10:45:33.235Z,1.2
2023-03-10T10:51:27.785Z,1.8
2023-03-10T10:57:18.945Z,1.5
2023-03-10T11:03:03.353Z,2.6
2023-03-10T11:08:47.359Z,1.1
2023-03-10T11:14:36.292Z,1.1
2023-03-10T11:20:29.498Z,2
2023-03-10T11:26:16.098Z,1.1
2023-03-10T11:32:02.484Z,1.6
2023-03-10T11:37:49.072Z,1.6
2023-03-10T11:43:39.739Z,2.5
2023-03-10T11:49:23.598Z,3.1
2023-03-10T11:55:08.327Z,1.8
2023-03-10T12:00:53.038Z,3.7
2023-03-10T12:06:41.215Z,3
2023-03-10T12:12:28.871Z,2.4
2023-03-10T12:18:12.833Z,2.2
2023-03-10T12:23:57.557Z,3
2023-03-10T12:29:42.650Z,2.2
2023-03-10T12:35:35.123Z,1.7
2023-03-10T12:41:23.986Z,1.9
2023-03-10T12:47:20.513Z,2.4
2023-03-10T12:53:07.760Z,2.3
2023-03-10T12:58:54.744Z,2.7
2023-03-10T13:04:38.641Z,3.2
2023-03-10T13:10:24.651Z,1.7
2023-03-10T13:16:09.598Z,2.4
2023-03-10T13:21:53.967Z,2.2
2023-03-10T13:27:38.134Z,2.3
2023-03-10T13:33:28.446Z,1.3
2023-03-10T13:39:19.109Z,1.8
2023-03-10T13:45:03.391Z,1.7
2023-03-10T13:50:47.533Z,1.7
2023-03-10T13:56:36.122Z,2
2023-03-10T14:02:21.315Z,1
2023-03-10T14:08:05.307Z,3
2023-03-10T14:13:49.082Z,1
2023-03-10T14:19:43.930Z,1.6
2023-03-10T14:25:28.848Z,0.7
2023-03-10T14:31:21.982Z,1.3
2023-03-10T14:37:06.650Z,3.8
2023-03-10T14:42:51.323Z,1.1
2023-03-10T14:48:37.462Z,1.9
2023-03-10T14:54:23.254Z,0.8
2023-03-10T15:00:07.691Z,1.9
2023-03-10T15:05:52.250Z,1.1
2023-03-10T15:11:40.222Z,1
2023-03-10T15:17:24.251Z,2.3
2023-03-10T15:23:08.254Z,3.9
2023-03-10T15:28:52.776Z,2
2023-03-10T15:34:36.460Z,1.3
2023-03-10T15:40:21.854Z,2.7
2023-03-10T15:46:11.874Z,2.2
2023-03-10T15:51:55.631Z,2.8
2023-03-10T15:57:39.361Z,2.3
2023-03-10T16:03:23.090Z,2.5
2023-03-10T16:09:10.073Z,3.1
2023-03-10T16:14:53.767Z,3.7
2023-03-10T16:20:37.747Z,3.2
2023-03-10T16:26:22.758Z,2.2
2023-03-10T16:32:06.908Z,3.2
2023-03-10T16:37:50.811Z,2.6
2023-03-10T16:43:34.916Z,2.5
2023-03-10T16:49:19.721Z,2.2
2023-03-10T16:55:03.703Z,2.4
2023-03-10T17:00:47.587Z,1.7
2023-03-10T17:06:32.438Z,1.9
2023-03-10T17:12:16.488Z,2.7
2023-03-10T17:18:00.414Z,2.5
2023-03-10T17:23:44.246Z,2.2
2023-03-10T17:29:28.006Z,2.4
2023-03-10T17:35:12.225Z,3
2023-03-10T17:40:56.910Z,2
2023-03-10T17:46:40.831Z,3.6
2023-03-10T17:52:25.218Z,2.7
2023-03-10T17:58:08.926Z,3.8
2023-03-10T18:03:52.653Z,4
2023-03-10T18:09:36.323Z,3.1
2023-03-10T18:15:20.356Z,2.8
2023-03-10T18:21:03.825Z,2
2023-03-10T18:26:47.293Z,2.7
2023-03-10T18:32:31.488Z,3.3
2023-03-10T18:38:16.222Z,2.7
2023-03-10T18:44:00.126Z,9.3
2023-03-10T18:49:44.037Z,7.5
2023-03-10T18:55:28.124Z,6.2
2023-03-10T19:01:16.654Z,10.8
2023-03-10T19:07:00.584Z,9.8
2023-03-10T19:12:44.674Z,8.3
2023-03-10T19:18:28.538Z,7.2
2023-03-10T19:24:12.556Z,7.2
2023-03-10T19:29:57.044Z,9
2023-03-10T19:35:41.720Z,6.6
2023-03-10T19:41:28.620Z,6.7
2023-03-10T19:47:12.558Z,6.3
2023-03-10T19:52:56.332Z,4.7
2023-03-10T19:58:40.177Z,4.3
2023-03-10T20:04:24.003Z,4.7
2023-03-10T20:10:08.327Z,5.9
2023-03-10T20:15:52.039Z,3.2
2023-03-10T20:21:35.979Z,4.4
2023-03-10T20:27:19.678Z,6.2
2023-03-10T20:33:03.670Z,5.1
2023-03-10T20:38:48.128Z,4.2
2023-03-10T20:44:31.911Z,3.8
2023-03-10T20:50:16.700Z,2.8
2023-03-10T20:56:00.567Z,2.7
2023-03-10T21:01:44.632Z,4.7
2023-03-10T21:07:28.527Z,4.7
2023-03-10T21:13:12.275Z,2.6
2023-03-10T21:18:56.074Z,2.9
2023-03-10T21:24:40.766Z,2.8
2023-03-10T21:30:24.539Z,2.7
2023-03-10T21:36:08.778Z,3.5
2023-03-10T21:41:52.675Z,1.9
2023-03-10T21:47:36.647Z,3.5
2023-03-10T21:53:20.489Z,1.5
2023-03-10T21:59:04.308Z,3
2023-03-10T22:04:48.211Z,3.3
2023-03-10T22:10:31.904Z,2.3
2023-03-10T22:16:17.852Z,2.6
2023-03-10T22:22:01.734Z,2.3
2023-03-10T22:27:45.926Z,3.6
2023-03-10T22:33:29.598Z,2.9
2023-03-10T22:39:13.548Z,3.1
2023-03-10T22:44:57.176Z,3.3
2023-03-10T22:50:41.729Z,6.1
2023-03-10T22:56:25.576Z,2.5
2023-03-10T23:02:09.745Z,2.7
2023-03-10T23:07:53.561Z,5
2023-03-10T23:13:37.360Z,5.7
2023-03-10T23:19:21.553Z,4.7
2023-03-10T23:25:05.218Z,4.1
2023-03-10T23:30:49.860Z,4.9
2023-03-10T23:36:33.598Z,4.5
2023-03-10T23:42:17.375Z,3.8
2023-03-10T23:48:02.502Z,5.2
2023-03-10T23:53:46.429Z,5.8
2023-03-10T23:59:30.563Z,4.5
